< < Back
Terminal Aerodrome Forecast


Current Version              Previous Versions:   1  2  3  4  5  6  7  8  9  

Terminal Aerodrome Forecast

008
FTUS42 KGSP 300500 RRA
TAFCLT
TAF
KCLT 300540Z 3006/0106 00000KT P6SM OVC070
      TEMPO 3007/3009 5SM BR SCT060
     FM300900 00000KT 3SM BR FEW120
      TEMPO 3009/3013 2SM BR SCT008
     FM301400 01003KT P6SM SCT250
     FM301600 35003KT P6SM SCT050
     FM010200 00000KT P6SM FEW250=



Latest METAR

370
SAUS70 KWBC 301000 RRA
MTRCLT
METAR KCLT 300952Z 00000KT 1/4SM R18C/2000V2200FT FG VV002 16/14 A2994
RMK AO2 SLP133 T01560144


USA.gov is the U.S. government's official web portal to all federal, state and local government web resources and services.